PWSweather.com
Personal Weather Stations
Station Observations
WESTON01
WestonSuperMareGB BS22 8RT

WestonSuperMareGB BS22 8RT

Lat: 51.351508, Lon: -2.933373

Elevation: 15

Station Type: Fine Offset WH1080

http://www.westonweather.co.uk

High Low Average
Temperature 55.1°F12.8°C 38.6°F3.7°C 44.8°F7.1°C
Dew Point 50.0°F10.0°C 34.5°F1.4°C 41.1°F5.1°C
Winds 10.5 mph 16.9 kmh Calm Calm 3.0 mph SE4.8 kmh SE
Wind Gusts 16.0 mph25.7 kmh -- 6.0 mph9.7 kmh
Humidity 95% 73% 87%
Pressure 30.47 in1031.8 mb 30.35 in1027.8 mb -
Precipitation 0.00 in0.0 mm - -
Hour Temp Dew Point Humidity Winds Wind Gusts Pressure Precip Precip Rate Daily Precip Total
12:00 AM 43.6°F6.4°C 40.6°F4.8°C 89% 5.7 mph S9.2 kmh S 7.4 mph11.9 kmh 30.35 in1027.8 mb 0.00 in0.0 mm 0.00 in0.0 mm 0.00 in0.0 mm
12:05 AM 43.6°F6.4°C 40.6°F4.8°C 89% 5.6 mph SSW9.0 kmh SSW 7.4 mph11.9 kmh 30.35 in1027.8 mb 0.00 in0.0 mm 0.00 in0.0 mm 0.00 in0.0 mm
12:10 AM 43.6°F6.4°C 40.6°F4.8°C 89% 5.7 mph S9.2 kmh S 7.4 mph11.9 kmh 30.35 in1027.8 mb 0.00 in0.0 mm 0.00 in0.0 mm 0.00 in0.0 mm
12:15 AM 43.8°F6.6°C 40.8°F4.9°C 89% 7.2 mph S11.6 kmh S 9.5 mph15.3 kmh 30.35 in1027.8 mb 0.00 in0.0 mm 0.00 in0.0 mm 0.00 in0.0 mm
12:20 AM 44.2°F6.8°C 41.1°F5.1°C 89% 8.6 mph SSW13.8 kmh SSW 10.1 mph16.3 kmh 30.35 in1027.8 mb 0.00 in0.0 mm 0.00 in0.0 mm 0.00 in0.0 mm
12:25 AM 44.2°F6.8°C 41.1°F5.1°C 89% 8.6 mph SSW13.8 kmh SSW 11.6 mph18.7 kmh 30.35 in1027.8 mb 0.00 in0.0 mm 0.00 in0.0 mm 0.00 in0.0 mm
12:30 AM 44.2°F6.8°C 41.1°F5.1°C 89% 6.9 mph S11.1 kmh S 11.6 mph18.7 kmh 30.35 in1027.8 mb 0.00 in0.0 mm 0.00 in0.0 mm 0.00 in0.0 mm
12:35 AM 44.2°F6.8°C 41.4°F5.2°C 90% 3.8 mph S6.1 kmh S 6.5 mph10.5 kmh 30.35 in1027.8 mb 0.00 in0.0 mm 0.00 in0.0 mm 0.00 in0.0 mm
12:40 AM 44.0°F6.7°C 40.9°F4.9°C 89% 2.5 mph S4.0 kmh S 4.5 mph7.2 kmh 30.38 in1028.8 mb 0.00 in0.0 mm 0.00 in0.0 mm 0.00 in0.0 mm
12:45 AM 44.0°F6.7°C 40.9°F4.9°C 89% 3.2 mph S5.1 kmh S 5.4 mph8.7 kmh 30.38 in1028.8 mb 0.00 in0.0 mm 0.00 in0.0 mm 0.00 in0.0 mm
12:50 AM 43.8°F6.6°C 40.8°F4.9°C 89% 3.1 mph S5.0 kmh S 5.4 mph8.7 kmh 30.38 in1028.8 mb 0.00 in0.0 mm 0.00 in0.0 mm 0.00 in0.0 mm
12:55 AM 43.6°F6.4°C 40.6°F4.8°C 89% 2.1 mph S3.4 kmh S 3.6 mph5.8 kmh 30.38 in1028.8 mb 0.00 in0.0 mm 0.00 in0.0 mm 0.00 in0.0 mm
01:00 AM 43.4°F6.3°C 40.4°F4.7°C 89% 1.9 mph SSW3.1 kmh SSW 3.6 mph5.8 kmh 30.38 in1028.8 mb 0.00 in0.0 mm 0.00 in0.0 mm 0.00 in0.0 mm
01:05 AM 43.3°F6.3°C 40.5°F4.7°C 90% 1.5 mph SSW2.4 kmh SSW 3.3 mph5.3 kmh 30.38 in1028.8 mb 0.00 in0.0 mm 0.00 in0.0 mm 0.00 in0.0 mm
01:10 AM 43.1°F6.2°C 40.3°F4.6°C 90% 1.0 mph SSW1.6 kmh SSW 3.3 mph5.3 kmh 30.38 in1028.8 mb 0.00 in0.0 mm 0.00 in0.0 mm 0.00 in0.0 mm
01:15 AM 42.9°F6.1°C 40.2°F4.6°C 90% Calm Calm -- 30.38 in1028.8 mb 0.00 in0.0 mm 0.00 in0.0 mm 0.00 in0.0 mm
01:20 AM 42.9°F6.1°C 40.2°F4.6°C 90% 1.4 mph S2.3 kmh S 5.7 mph9.2 kmh 30.38 in1028.8 mb 0.00 in0.0 mm 0.00 in0.0 mm 0.00 in0.0 mm
01:25 AM 42.9°F6.1°C 40.2°F4.6°C 90% 2.7 mph S4.3 kmh S 5.7 mph9.2 kmh 30.41 in1029.8 mb 0.00 in0.0 mm 0.00 in0.0 mm 0.00 in0.0 mm
01:30 AM 42.7°F5.9°C 40.0°F4.4°C 90% 2.8 mph S4.5 kmh S 5.7 mph9.2 kmh 30.41 in1029.8 mb 0.00 in0.0 mm 0.00 in0.0 mm 0.00 in0.0 mm
01:35 AM 42.7°F5.9°C 40.0°F4.4°C 90% 2.1 mph S3.4 kmh S 4.5 mph7.2 kmh 30.41 in1029.8 mb 0.00 in0.0 mm 0.00 in0.0 mm 0.00 in0.0 mm
01:40 AM 42.9°F6.1°C 40.2°F4.6°C 90% 1.5 mph S2.4 kmh S 3.9 mph6.3 kmh 30.41 in1029.8 mb 0.00 in0.0 mm 0.00 in0.0 mm 0.00 in0.0 mm
01:45 AM 42.7°F5.9°C 40.0°F4.4°C 90% 1.1 mph S1.8 kmh S 3.9 mph6.3 kmh 30.41 in1029.8 mb 0.00 in0.0 mm 0.00 in0.0 mm 0.00 in0.0 mm
01:50 AM 42.5°F5.8°C 39.8°F4.3°C 90% 1.3 mph SSE2.1 kmh SSE 3.9 mph6.3 kmh 30.41 in1029.8 mb 0.00 in0.0 mm 0.00 in0.0 mm 0.00 in0.0 mm
01:55 AM 42.5°F5.8°C 39.8°F4.3°C 90% 1.8 mph SE2.9 kmh SE 3.9 mph6.3 kmh 30.41 in1029.8 mb 0.00 in0.0 mm 0.00 in0.0 mm 0.00 in0.0 mm
02:00 AM 42.5°F5.8°C 39.8°F4.3°C 90% 1.9 mph SE3.1 kmh SE 6.5 mph10.5 kmh 30.41 in1029.8 mb 0.00 in0.0 mm 0.00 in0.0 mm 0.00 in0.0 mm
02:05 AM 42.5°F5.8°C 39.8°F4.3°C 90% 1.8 mph SE2.9 kmh SE 6.5 mph10.5 kmh 30.41 in1029.8 mb 0.00 in0.0 mm 0.00 in0.0 mm 0.00 in0.0 mm
02:10 AM 42.5°F5.8°C 40.1°F4.5°C 91% 0.3 mph SW0.5 kmh SW 1.8 mph2.9 kmh 30.41 in1029.8 mb 0.00 in0.0 mm 0.00 in0.0 mm 0.00 in0.0 mm
02:15 AM 42.3°F5.7°C 39.6°F4.2°C 90% 0.7 mph S1.1 kmh S 3.6 mph5.8 kmh 30.41 in1029.8 mb 0.00 in0.0 mm 0.00 in0.0 mm 0.00 in0.0 mm
02:20 AM 42.2°F5.7°C 39.4°F4.1°C 90% 1.1 mph S1.8 kmh S 3.6 mph5.8 kmh 30.41 in1029.8 mb 0.00 in0.0 mm 0.00 in0.0 mm 0.00 in0.0 mm
02:25 AM 42.2°F5.7°C 39.7°F4.3°C 91% 1.2 mph ESE1.9 kmh ESE 3.3 mph5.3 kmh 30.41 in1029.8 mb 0.00 in0.0 mm 0.00 in0.0 mm 0.00 in0.0 mm
02:30 AM 42.2°F5.7°C 39.7°F4.3°C 91% 1.3 mph E2.1 kmh E 3.3 mph5.3 kmh 30.41 in1029.8 mb 0.00 in0.0 mm 0.00 in0.0 mm 0.00 in0.0 mm
02:35 AM 42.3°F5.7°C 39.9°F4.4°C 91% 1.3 mph SE2.1 kmh SE 4.8 mph7.7 kmh 30.41 in1029.8 mb 0.00 in0.0 mm 0.00 in0.0 mm 0.00 in0.0 mm
02:40 AM 42.3°F5.7°C 39.9°F4.4°C 91% 2.1 mph E3.4 kmh E 4.8 mph7.7 kmh 30.41 in1029.8 mb 0.00 in0.0 mm 0.00 in0.0 mm 0.00 in0.0 mm
02:45 AM 42.2°F5.7°C 39.7°F4.3°C 91% 1.7 mph ENE2.7 kmh ENE 3.9 mph6.3 kmh 30.41 in1029.8 mb 0.00 in0.0 mm 0.00 in0.0 mm 0.00 in0.0 mm
02:50 AM 41.8°F5.4°C 39.4°F4.1°C 91% 0.9 mph E1.4 kmh E 3.0 mph4.8 kmh 30.41 in1029.8 mb 0.00 in0.0 mm 0.00 in0.0 mm 0.00 in0.0 mm
02:55 AM 41.6°F5.3°C 38.9°F3.8°C 90% 0.4 mph E0.6 kmh E 3.0 mph4.8 kmh 30.38 in1028.8 mb 0.00 in0.0 mm 0.00 in0.0 mm 0.00 in0.0 mm
03:00 AM 41.3°F5.2°C 38.8°F3.8°C 91% Calm Calm -- 30.38 in1028.8 mb 0.00 in0.0 mm 0.00 in0.0 mm 0.00 in0.0 mm
03:05 AM 41.1°F5.1°C 38.7°F3.7°C 91% Calm Calm -- 30.38 in1028.8 mb 0.00 in0.0 mm 0.00 in0.0 mm 0.00 in0.0 mm
03:10 AM 40.9°F4.9°C 38.5°F3.6°C 91% Calm Calm -- 30.41 in1029.8 mb 0.00 in0.0 mm 0.00 in0.0 mm 0.00 in0.0 mm
03:15 AM 40.9°F4.9°C 38.5°F3.6°C 91% 0.6 mph NW1.0 kmh NW 4.8 mph7.7 kmh 30.41 in1029.8 mb 0.00 in0.0 mm 0.00 in0.0 mm 0.00 in0.0 mm
03:20 AM 40.9°F4.9°C 38.5°F3.6°C 91% 0.6 mph NW1.0 kmh NW 4.8 mph7.7 kmh 30.41 in1029.8 mb 0.00 in0.0 mm 0.00 in0.0 mm 0.00 in0.0 mm
03:25 AM 41.1°F5.1°C 38.7°F3.7°C 91% 0.3 mph WSW0.5 kmh WSW 1.5 mph2.4 kmh 30.38 in1028.8 mb 0.00 in0.0 mm 0.00 in0.0 mm 0.00 in0.0 mm
03:30 AM 41.3°F5.2°C 39.1°F3.9°C 92% 0.4 mph W0.6 kmh W 1.8 mph2.9 kmh 30.38 in1028.8 mb 0.00 in0.0 mm 0.00 in0.0 mm 0.00 in0.0 mm
03:35 AM 41.6°F5.3°C 39.5°F4.2°C 92% 0.6 mph S1.0 kmh S 3.0 mph4.8 kmh 30.38 in1028.8 mb 0.00 in0.0 mm 0.00 in0.0 mm 0.00 in0.0 mm
03:40 AM 41.8°F5.4°C 39.7°F4.3°C 92% 0.6 mph SSE1.0 kmh SSE 3.0 mph4.8 kmh 30.41 in1029.8 mb 0.00 in0.0 mm 0.00 in0.0 mm 0.00 in0.0 mm
03:45 AM 41.8°F5.4°C 39.7°F4.3°C 92% 0.5 mph NE0.8 kmh NE 4.2 mph6.8 kmh 30.41 in1029.8 mb 0.00 in0.0 mm 0.00 in0.0 mm 0.00 in0.0 mm
03:50 AM 42.0°F5.6°C 39.8°F4.3°C 92% 0.3 mph E0.5 kmh E 4.2 mph6.8 kmh 30.41 in1029.8 mb 0.00 in0.0 mm 0.00 in0.0 mm 0.00 in0.0 mm
03:55 AM 42.2°F5.7°C 40.0°F4.4°C 92% 0.9 mph E1.4 kmh E 5.4 mph8.7 kmh 30.41 in1029.8 mb 0.00 in0.0 mm 0.00 in0.0 mm 0.00 in0.0 mm
04:00 AM 42.3°F5.7°C 40.2°F4.6°C 92% 1.0 mph ENE1.6 kmh ENE 5.4 mph8.7 kmh 30.41 in1029.8 mb 0.00 in0.0 mm 0.00 in0.0 mm 0.00 in0.0 mm
04:05 AM 42.3°F5.7°C 40.2°F4.6°C 92% 1.3 mph NE2.1 kmh NE 3.9 mph6.3 kmh 30.41 in1029.8 mb 0.00 in0.0 mm 0.00 in0.0 mm 0.00 in0.0 mm
04:10 AM 42.5°F5.8°C 40.6°F4.8°C 93% 1.8 mph NE2.9 kmh NE 5.1 mph8.2 kmh 30.41 in1029.8 mb 0.00 in0.0 mm 0.00 in0.0 mm 0.00 in0.0 mm
04:15 AM 42.5°F5.8°C 40.6°F4.8°C 93% 1.7 mph ENE2.7 kmh ENE 5.1 mph8.2 kmh 30.41 in1029.8 mb 0.00 in0.0 mm 0.00 in0.0 mm 0.00 in0.0 mm
04:20 AM 42.5°F5.8°C 40.6°F4.8°C 93% 1.5 mph E2.4 kmh E 3.6 mph5.8 kmh 30.41 in1029.8 mb 0.00 in0.0 mm 0.00 in0.0 mm 0.00 in0.0 mm
04:25 AM 42.7°F5.9°C 40.8°F4.9°C 93% 1.3 mph SE2.1 kmh SE 4.2 mph6.8 kmh 30.41 in1029.8 mb 0.00 in0.0 mm 0.00 in0.0 mm 0.00 in0.0 mm
04:30 AM 42.7°F5.9°C 40.8°F4.9°C 93% 2.0 mph SE3.2 kmh SE 5.4 mph8.7 kmh 30.41 in1029.8 mb 0.00 in0.0 mm 0.00 in0.0 mm 0.00 in0.0 mm
04:35 AM 42.5°F5.8°C 40.6°F4.8°C 93% 3.4 mph SSE5.5 kmh SSE 5.4 mph8.7 kmh 30.41 in1029.8 mb 0.00 in0.0 mm 0.00 in0.0 mm 0.00 in0.0 mm
04:40 AM 42.5°F5.8°C 40.6°F4.8°C 93% 2.8 mph SSE4.5 kmh SSE 7.4 mph11.9 kmh 30.41 in1029.8 mb 0.00 in0.0 mm 0.00 in0.0 mm 0.00 in0.0 mm
04:45 AM 42.5°F5.8°C 40.6°F4.8°C 93% 2.2 mph ESE3.5 kmh ESE 7.4 mph11.9 kmh 30.41 in1029.8 mb 0.00 in0.0 mm 0.00 in0.0 mm 0.00 in0.0 mm
04:50 AM 42.5°F5.8°C 40.6°F4.8°C 93% 2.1 mph ESE3.4 kmh ESE 5.4 mph8.7 kmh 30.41 in1029.8 mb 0.00 in0.0 mm 0.00 in0.0 mm 0.00 in0.0 mm
04:55 AM 42.5°F5.8°C 40.6°F4.8°C 93% 1.6 mph SE2.6 kmh SE 5.4 mph8.7 kmh 30.41 in1029.8 mb 0.00 in0.0 mm 0.00 in0.0 mm 0.00 in0.0 mm
05:00 AM 42.3°F5.7°C 40.5°F4.7°C 93% 1.5 mph SE2.4 kmh SE 5.1 mph8.2 kmh 30.41 in1029.8 mb 0.00 in0.0 mm 0.00 in0.0 mm 0.00 in0.0 mm
05:05 AM 42.3°F5.7°C 40.5°F4.7°C 93% 3.2 mph SE5.1 kmh SE 5.7 mph9.2 kmh 30.41 in1029.8 mb 0.00 in0.0 mm 0.00 in0.0 mm 0.00 in0.0 mm
05:10 AM 42.3°F5.7°C 40.5°F4.7°C 93% 5.8 mph SSE9.3 kmh SSE 13.7 mph22.0 kmh 30.38 in1028.8 mb 0.00 in0.0 mm 0.00 in0.0 mm 0.00 in0.0 mm
05:15 AM 42.3°F5.7°C 40.5°F4.7°C 93% 6.7 mph S10.8 kmh S 13.7 mph22.0 kmh 30.38 in1028.8 mb 0.00 in0.0 mm 0.00 in0.0 mm 0.00 in0.0 mm
05:20 AM 42.2°F5.7°C 40.3°F4.6°C 93% 5.5 mph S8.9 kmh S 8.0 mph12.9 kmh 30.38 in1028.8 mb 0.00 in0.0 mm 0.00 in0.0 mm 0.00 in0.0 mm
05:25 AM 42.2°F5.7°C 40.3°F4.6°C 93% 6.9 mph S11.1 kmh S 13.7 mph22.0 kmh 30.38 in1028.8 mb 0.00 in0.0 mm 0.00 in0.0 mm 0.00 in0.0 mm
05:35 AM 41.8°F5.4°C 39.7°F4.3°C 92% 10.5 mph S16.9 kmh S 16.0 mph25.7 kmh 30.38 in1028.8 mb 0.00 in0.0 mm 0.00 in0.0 mm 0.00 in0.0 mm
05:40 AM 41.8°F5.4°C 39.7°F4.3°C 92% 9.9 mph S15.9 kmh S 13.7 mph22.0 kmh 30.38 in1028.8 mb 0.00 in0.0 mm 0.00 in0.0 mm 0.00 in0.0 mm
05:45 AM 41.8°F5.4°C 39.9°F4.4°C 93% 8.1 mph S13.0 kmh S 10.4 mph16.7 kmh 30.38 in1028.8 mb 0.00 in0.0 mm 0.00 in0.0 mm 0.00 in0.0 mm
05:50 AM 41.8°F5.4°C 39.9°F4.4°C 93% 6.8 mph S10.9 kmh S 8.9 mph14.3 kmh 30.38 in1028.8 mb 0.00 in0.0 mm 0.00 in0.0 mm 0.00 in0.0 mm
05:55 AM 41.8°F5.4°C 39.9°F4.4°C 93% 6.0 mph SSE9.7 kmh SSE 8.9 mph14.3 kmh 30.38 in1028.8 mb 0.00 in0.0 mm 0.00 in0.0 mm 0.00 in0.0 mm
06:00 AM 41.8°F5.4°C 39.9°F4.4°C 93% 6.4 mph SSE10.3 kmh SSE 11.6 mph18.7 kmh 30.38 in1028.8 mb 0.00 in0.0 mm 0.00 in0.0 mm 0.00 in0.0 mm
06:05 AM 41.8°F5.4°C 39.9°F4.4°C 93% 6.2 mph S10.0 kmh S 11.6 mph18.7 kmh 30.38 in1028.8 mb 0.00 in0.0 mm 0.00 in0.0 mm 0.00 in0.0 mm
06:10 AM 41.8°F5.4°C 39.9°F4.4°C 93% 5.1 mph SE8.2 kmh SE 8.6 mph13.8 kmh 30.38 in1028.8 mb 0.00 in0.0 mm 0.00 in0.0 mm 0.00 in0.0 mm
06:15 AM 41.8°F5.4°C 39.9°F4.4°C 93% 3.5 mph ESE5.6 kmh ESE 7.4 mph11.9 kmh 30.38 in1028.8 mb 0.00 in0.0 mm 0.00 in0.0 mm 0.00 in0.0 mm
06:20 AM 41.8°F5.4°C 39.9°F4.4°C 93% 1.2 mph SE1.9 kmh SE 5.4 mph8.7 kmh 30.38 in1028.8 mb 0.00 in0.0 mm 0.00 in0.0 mm 0.00 in0.0 mm
06:25 AM 41.8°F5.4°C 39.9°F4.4°C 93% Calm Calm -- 30.38 in1028.8 mb 0.00 in0.0 mm 0.00 in0.0 mm 0.00 in0.0 mm
06:30 AM 41.8°F5.4°C 40.2°F4.6°C 94% 0.2 mph E0.3 kmh E 1.5 mph2.4 kmh 30.38 in1028.8 mb 0.00 in0.0 mm 0.00 in0.0 mm 0.00 in0.0 mm
06:35 AM 41.8°F5.4°C 40.2°F4.6°C 94% 0.7 mph N1.1 kmh N 3.0 mph4.8 kmh 30.38 in1028.8 mb 0.00 in0.0 mm 0.00 in0.0 mm 0.00 in0.0 mm
06:40 AM 42.0°F5.6°C 40.4°F4.7°C 94% 1.6 mph WNW2.6 kmh WNW 3.6 mph5.8 kmh 30.38 in1028.8 mb 0.00 in0.0 mm 0.00 in0.0 mm 0.00 in0.0 mm
06:45 AM 42.0°F5.6°C 40.4°F4.7°C 94% 1.9 mph W3.1 kmh W 3.6 mph5.8 kmh 30.38 in1028.8 mb 0.00 in0.0 mm 0.00 in0.0 mm 0.00 in0.0 mm
06:50 AM 42.0°F5.6°C 40.4°F4.7°C 94% 1.2 mph SSW1.9 kmh SSW 3.6 mph5.8 kmh 30.38 in1028.8 mb 0.00 in0.0 mm 0.00 in0.0 mm 0.00 in0.0 mm
06:55 AM 42.2°F5.7°C 40.6°F4.8°C 94% 1.8 mph SSW2.9 kmh SSW 3.0 mph4.8 kmh 30.41 in1029.8 mb 0.00 in0.0 mm 0.00 in0.0 mm 0.00 in0.0 mm
07:00 AM 42.2°F5.7°C 40.6°F4.8°C 94% 1.4 mph SSW2.3 kmh SSW 3.0 mph4.8 kmh 30.41 in1029.8 mb 0.00 in0.0 mm 0.00 in0.0 mm 0.00 in0.0 mm
07:05 AM 42.2°F5.7°C 40.6°F4.8°C 94% 1.7 mph SW2.7 kmh SW 4.8 mph7.7 kmh 30.41 in1029.8 mb 0.00 in0.0 mm 0.00 in0.0 mm 0.00 in0.0 mm
07:10 AM 42.2°F5.7°C 40.6°F4.8°C 94% 2.6 mph SW4.2 kmh SW 4.8 mph7.7 kmh 30.41 in1029.8 mb 0.00 in0.0 mm 0.00 in0.0 mm 0.00 in0.0 mm
07:15 AM 42.0°F5.6°C 40.4°F4.7°C 94% 3.1 mph SSW5.0 kmh SSW 5.4 mph8.7 kmh 30.41 in1029.8 mb 0.00 in0.0 mm 0.00 in0.0 mm 0.00 in0.0 mm
07:20 AM 41.8°F5.4°C 40.2°F4.6°C 94% 3.1 mph SSW5.0 kmh SSW 5.4 mph8.7 kmh 30.41 in1029.8 mb 0.00 in0.0 mm 0.00 in0.0 mm 0.00 in0.0 mm
07:25 AM 41.6°F5.3°C 40.0°F4.4°C 94% 1.6 mph S2.6 kmh S 4.5 mph7.2 kmh 30.44 in1030.8 mb 0.00 in0.0 mm 0.00 in0.0 mm 0.00 in0.0 mm
07:30 AM 41.6°F5.3°C 40.0°F4.4°C 94% 0.6 mph S1.0 kmh S 3.3 mph5.3 kmh 30.44 in1030.8 mb 0.00 in0.0 mm 0.00 in0.0 mm 0.00 in0.0 mm
07:35 AM 41.6°F5.3°C 40.0°F4.4°C 94% 1.3 mph S2.1 kmh S 4.2 mph6.8 kmh 30.44 in1030.8 mb 0.00 in0.0 mm 0.00 in0.0 mm 0.00 in0.0 mm
07:40 AM 41.6°F5.3°C 40.0°F4.4°C 94% 1.1 mph S1.8 kmh S 4.2 mph6.8 kmh 30.44 in1030.8 mb 0.00 in0.0 mm 0.00 in0.0 mm 0.00 in0.0 mm
07:45 AM 41.6°F5.3°C 40.0°F4.4°C 94% 0.2 mph SW0.3 kmh SW 3.0 mph4.8 kmh 30.44 in1030.8 mb 0.00 in0.0 mm 0.00 in0.0 mm 0.00 in0.0 mm
07:50 AM 41.6°F5.3°C 40.0°F4.4°C 94% Calm Calm -- 30.44 in1030.8 mb 0.00 in0.0 mm 0.00 in0.0 mm 0.00 in0.0 mm
07:55 AM 41.6°F5.3°C 40.0°F4.4°C 94% Calm Calm -- 30.47 in1031.8 mb 0.00 in0.0 mm 0.00 in0.0 mm 0.00 in0.0 mm
08:00 AM 41.6°F5.3°C 40.0°F4.4°C 94% Calm Calm -- 30.47 in1031.8 mb 0.00 in0.0 mm 0.00 in0.0 mm 0.00 in0.0 mm
08:05 AM 41.6°F5.3°C 40.0°F4.4°C 94% Calm Calm -- 30.47 in1031.8 mb 0.00 in0.0 mm 0.00 in0.0 mm 0.00 in0.0 mm
08:10 AM 41.6°F5.3°C 40.0°F4.4°C 94% 0.8 mph S1.3 kmh S 3.9 mph6.3 kmh 30.47 in1031.8 mb 0.00 in0.0 mm 0.00 in0.0 mm 0.00 in0.0 mm
08:15 AM 41.6°F5.3°C 40.0°F4.4°C 94% 0.9 mph S1.4 kmh S 3.9 mph6.3 kmh 30.47 in1031.8 mb 0.00 in0.0 mm 0.00 in0.0 mm 0.00 in0.0 mm
08:20 AM 41.8°F5.4°C 40.2°F4.6°C 94% 0.3 mph ESE0.5 kmh ESE 1.8 mph2.9 kmh 30.47 in1031.8 mb 0.00 in0.0 mm 0.00 in0.0 mm 0.00 in0.0 mm
08:25 AM 41.8°F5.4°C 40.2°F4.6°C 94% 0.6 mph SE1.0 kmh SE 3.6 mph5.8 kmh 30.47 in1031.8 mb 0.00 in0.0 mm 0.00 in0.0 mm 0.00 in0.0 mm
08:30 AM 41.8°F5.4°C 40.2°F4.6°C 94% 1.6 mph SSE2.6 kmh SSE 3.9 mph6.3 kmh 30.47 in1031.8 mb 0.00 in0.0 mm 0.00 in0.0 mm 0.00 in0.0 mm
08:35 AM 42.0°F5.6°C 40.4°F4.7°C 94% 2.9 mph SSE4.7 kmh SSE 6.5 mph10.5 kmh 30.47 in1031.8 mb 0.00 in0.0 mm 0.00 in0.0 mm 0.00 in0.0 mm
08:40 AM 42.0°F5.6°C 40.4°F4.7°C 94% 3.5 mph SSE5.6 kmh SSE 6.5 mph10.5 kmh 30.47 in1031.8 mb 0.00 in0.0 mm 0.00 in0.0 mm 0.00 in0.0 mm
08:45 AM 42.2°F5.7°C 40.6°F4.8°C 94% 3.7 mph S6.0 kmh S 8.6 mph13.8 kmh 30.47 in1031.8 mb 0.00 in0.0 mm 0.00 in0.0 mm 0.00 in0.0 mm
08:50 AM 42.2°F5.7°C 40.6°F4.8°C 94% 4.8 mph S7.7 kmh S 8.6 mph13.8 kmh 30.47 in1031.8 mb 0.00 in0.0 mm 0.00 in0.0 mm 0.00 in0.0 mm
08:55 AM 42.2°F5.7°C 40.6°F4.8°C 94% 6.5 mph S10.5 kmh S 11.3 mph18.2 kmh 30.44 in1030.8 mb 0.00 in0.0 mm 0.00 in0.0 mm 0.00 in0.0 mm
09:00 AM 42.3°F5.7°C 40.7°F4.8°C 94% 6.5 mph SSE10.5 kmh SSE 11.3 mph18.2 kmh 30.44 in1030.8 mb 0.00 in0.0 mm 0.00 in0.0 mm 0.00 in0.0 mm
09:05 AM 42.3°F5.7°C 40.7°F4.8°C 94% 4.9 mph SE7.9 kmh SE 7.7 mph12.4 kmh 30.44 in1030.8 mb 0.00 in0.0 mm 0.00 in0.0 mm 0.00 in0.0 mm
09:10 AM 42.5°F5.8°C 41.2°F5.1°C 95% 5.2 mph SSE8.4 kmh SSE 9.2 mph14.8 kmh 30.47 in1031.8 mb 0.00 in0.0 mm 0.00 in0.0 mm 0.00 in0.0 mm
09:15 AM 42.7°F5.9°C 41.4°F5.2°C 95% 5.7 mph S9.2 kmh S 9.2 mph14.8 kmh 30.47 in1031.8 mb 0.00 in0.0 mm 0.00 in0.0 mm 0.00 in0.0 mm
09:20 AM 42.7°F5.9°C 41.4°F5.2°C 95% 6.7 mph S10.8 kmh S 9.8 mph15.8 kmh 30.47 in1031.8 mb 0.00 in0.0 mm 0.00 in0.0 mm 0.00 in0.0 mm
09:25 AM 42.9°F6.1°C 41.6°F5.3°C 95% 7.7 mph S12.4 kmh S 14.3 mph23.0 kmh 30.44 in1030.8 mb 0.00 in0.0 mm 0.00 in0.0 mm 0.00 in0.0 mm
09:30 AM 42.9°F6.1°C 41.6°F5.3°C 95% 7.7 mph S12.4 kmh S 14.3 mph23.0 kmh 30.44 in1030.8 mb 0.00 in0.0 mm 0.00 in0.0 mm 0.00 in0.0 mm
09:35 AM 42.9°F6.1°C 41.6°F5.3°C 95% 6.9 mph S11.1 kmh S 12.8 mph20.6 kmh 30.44 in1030.8 mb 0.00 in0.0 mm 0.00 in0.0 mm 0.00 in0.0 mm
09:40 AM 43.1°F6.2°C 41.7°F5.4°C 95% 5.6 mph SSE9.0 kmh SSE 10.1 mph16.3 kmh 30.47 in1031.8 mb 0.00 in0.0 mm 0.00 in0.0 mm 0.00 in0.0 mm
09:45 AM 43.3°F6.3°C 41.9°F5.5°C 95% 6.1 mph S9.8 kmh S 10.1 mph16.3 kmh 30.47 in1031.8 mb 0.00 in0.0 mm 0.00 in0.0 mm 0.00 in0.0 mm
09:50 AM 43.3°F6.3°C 41.9°F5.5°C 95% 7.6 mph S12.2 kmh S 11.3 mph18.2 kmh 30.47 in1031.8 mb 0.00 in0.0 mm 0.00 in0.0 mm 0.00 in0.0 mm
09:55 AM 43.4°F6.3°C 41.8°F5.4°C 94% 7.7 mph S12.4 kmh S 11.3 mph18.2 kmh 30.47 in1031.8 mb 0.00 in0.0 mm 0.00 in0.0 mm 0.00 in0.0 mm
10:00 AM 43.4°F6.3°C 41.8°F5.4°C 94% 6.4 mph S10.3 kmh S 11.3 mph18.2 kmh 30.47 in1031.8 mb 0.00 in0.0 mm 0.00 in0.0 mm 0.00 in0.0 mm
10:05 AM 43.6°F6.4°C 42.3°F5.7°C 95% 5.6 mph S9.0 kmh S 11.3 mph18.2 kmh 30.47 in1031.8 mb 0.00 in0.0 mm 0.00 in0.0 mm 0.00 in0.0 mm
10:10 AM 43.8°F6.6°C 42.5°F5.8°C 95% 5.3 mph SSE8.5 kmh SSE 8.0 mph12.9 kmh 30.44 in1030.8 mb 0.00 in0.0 mm 0.00 in0.0 mm 0.00 in0.0 mm
10:15 AM 44.0°F6.7°C 42.6°F5.9°C 95% 4.4 mph SE7.1 kmh SE 8.0 mph12.9 kmh 30.44 in1030.8 mb 0.00 in0.0 mm 0.00 in0.0 mm 0.00 in0.0 mm
10:20 AM 44.2°F6.8°C 42.8°F6.0°C 95% 3.5 mph E5.6 kmh E 4.2 mph6.8 kmh 30.44 in1030.8 mb 0.00 in0.0 mm 0.00 in0.0 mm 0.00 in0.0 mm
10:25 AM 44.3°F6.8°C 43.0°F6.1°C 95% 3.4 mph E5.5 kmh E 4.8 mph7.7 kmh 30.47 in1031.8 mb 0.00 in0.0 mm 0.00 in0.0 mm 0.00 in0.0 mm
10:30 AM 44.3°F6.8°C 43.0°F6.1°C 95% 3.4 mph SE5.5 kmh SE 4.8 mph7.7 kmh 30.47 in1031.8 mb 0.00 in0.0 mm 0.00 in0.0 mm 0.00 in0.0 mm
10:35 AM 44.5°F6.9°C 43.2°F6.2°C 95% 3.9 mph SE6.3 kmh SE 7.4 mph11.9 kmh 30.47 in1031.8 mb 0.00 in0.0 mm 0.00 in0.0 mm 0.00 in0.0 mm
10:40 AM 44.5°F6.9°C 43.2°F6.2°C 95% 4.3 mph SSE6.9 kmh SSE 7.4 mph11.9 kmh 30.47 in1031.8 mb 0.00 in0.0 mm 0.00 in0.0 mm 0.00 in0.0 mm
10:45 AM 44.7°F7.1°C 43.3°F6.3°C 95% 3.7 mph SSE6.0 kmh SSE 4.8 mph7.7 kmh 30.47 in1031.8 mb 0.00 in0.0 mm 0.00 in0.0 mm 0.00 in0.0 mm
10:50 AM 44.9°F7.2°C 43.5°F6.4°C 95% 3.6 mph SE5.8 kmh SE 5.1 mph8.2 kmh 30.47 in1031.8 mb 0.00 in0.0 mm 0.00 in0.0 mm 0.00 in0.0 mm
10:55 AM 44.9°F7.2°C 43.5°F6.4°C 95% 5.2 mph SE8.4 kmh SE 9.5 mph15.3 kmh 30.44 in1030.8 mb 0.00 in0.0 mm 0.00 in0.0 mm 0.00 in0.0 mm
11:00 AM 45.0°F7.2°C 43.7°F6.5°C 95% 5.3 mph SSE8.5 kmh SSE 9.5 mph15.3 kmh 30.44 in1030.8 mb 0.00 in0.0 mm 0.00 in0.0 mm 0.00 in0.0 mm
11:05 AM 45.2°F7.3°C 43.6°F6.4°C 94% 4.1 mph SSE6.6 kmh SSE 6.5 mph10.5 kmh 30.44 in1030.8 mb 0.00 in0.0 mm 0.00 in0.0 mm 0.00 in0.0 mm
11:10 AM 45.6°F7.6°C 44.0°F6.7°C 94% 3.3 mph ESE5.3 kmh ESE 5.4 mph8.7 kmh 30.44 in1030.8 mb 0.00 in0.0 mm 0.00 in0.0 mm 0.00 in0.0 mm
11:15 AM 45.6°F7.6°C 44.0°F6.7°C 94% 3.7 mph SSE6.0 kmh SSE 7.7 mph12.4 kmh 30.44 in1030.8 mb 0.00 in0.0 mm 0.00 in0.0 mm 0.00 in0.0 mm
11:20 AM 46.0°F7.8°C 44.3°F6.8°C 94% 4.8 mph S7.7 kmh S 9.2 mph14.8 kmh 30.44 in1030.8 mb 0.00 in0.0 mm 0.00 in0.0 mm 0.00 in0.0 mm
11:25 AM 46.0°F7.8°C 44.3°F6.8°C 94% 5.0 mph SSE8.0 kmh SSE 11.6 mph18.7 kmh 30.47 in1031.8 mb 0.00 in0.0 mm 0.00 in0.0 mm 0.00 in0.0 mm
11:30 AM 46.1°F7.8°C 44.5°F6.9°C 94% 4.1 mph SSE6.6 kmh SSE 11.6 mph18.7 kmh 30.47 in1031.8 mb 0.00 in0.0 mm 0.00 in0.0 mm 0.00 in0.0 mm
11:35 AM 46.1°F7.8°C 44.5°F6.9°C 94% 2.5 mph S4.0 kmh S 3.9 mph6.3 kmh 30.47 in1031.8 mb 0.00 in0.0 mm 0.00 in0.0 mm 0.00 in0.0 mm
11:40 AM 46.3°F7.9°C 44.7°F7.1°C 94% 2.7 mph S4.3 kmh S 5.1 mph8.2 kmh 30.44 in1030.8 mb 0.00 in0.0 mm 0.00 in0.0 mm 0.00 in0.0 mm
11:45 AM 46.5°F8.1°C 44.9°F7.2°C 94% 3.4 mph S5.5 kmh S 7.1 mph11.4 kmh 30.44 in1030.8 mb 0.00 in0.0 mm 0.00 in0.0 mm 0.00 in0.0 mm
11:50 AM 47.0°F8.3°C 45.4°F7.4°C 94% 5.0 mph S8.0 kmh S 10.7 mph17.2 kmh 30.44 in1030.8 mb 0.00 in0.0 mm 0.00 in0.0 mm 0.00 in0.0 mm
11:55 AM 47.2°F8.4°C 45.3°F7.4°C 93% 5.1 mph S8.2 kmh S 10.7 mph17.2 kmh 30.47 in1031.8 mb 0.00 in0.0 mm 0.00 in0.0 mm 0.00 in0.0 mm
12:00 PM 47.8°F8.8°C 46.1°F7.8°C 94% 2.6 mph S4.2 kmh S 7.4 mph11.9 kmh 30.47 in1031.8 mb 0.00 in0.0 mm 0.00 in0.0 mm 0.00 in0.0 mm
12:05 PM 47.9°F8.8°C 46.3°F7.9°C 94% 2.5 mph S4.0 kmh S 7.7 mph12.4 kmh 30.47 in1031.8 mb 0.00 in0.0 mm 0.00 in0.0 mm 0.00 in0.0 mm
12:10 PM 48.1°F8.9°C 46.2°F7.9°C 93% 4.5 mph S7.2 kmh S 7.7 mph12.4 kmh 30.47 in1031.8 mb 0.00 in0.0 mm 0.00 in0.0 mm 0.00 in0.0 mm
12:15 PM 48.3°F9.1°C 46.4°F8.0°C 93% 4.8 mph S7.7 kmh S 7.7 mph12.4 kmh 30.47 in1031.8 mb 0.00 in0.0 mm 0.00 in0.0 mm 0.00 in0.0 mm
12:20 PM 48.8°F9.3°C 46.9°F8.3°C 93% 3.5 mph S5.6 kmh S 4.8 mph7.7 kmh 30.47 in1031.8 mb 0.00 in0.0 mm 0.00 in0.0 mm 0.00 in0.0 mm
12:25 PM 49.0°F9.4°C 46.8°F8.2°C 92% 3.6 mph SSE5.8 kmh SSE 5.1 mph8.2 kmh 30.47 in1031.8 mb 0.00 in0.0 mm 0.00 in0.0 mm 0.00 in0.0 mm
12:30 PM 49.2°F9.6°C 47.0°F8.3°C 92% 2.9 mph SSE4.7 kmh SSE 5.1 mph8.2 kmh 30.47 in1031.8 mb 0.00 in0.0 mm 0.00 in0.0 mm 0.00 in0.0 mm
12:35 PM 49.9°F9.9°C 47.7°F8.7°C 92% 1.9 mph SE3.1 kmh SE 5.1 mph8.2 kmh 30.47 in1031.8 mb 0.00 in0.0 mm 0.00 in0.0 mm 0.00 in0.0 mm
12:40 PM 50.5°F10.3°C 48.2°F9.0°C 92% 2.8 mph SE4.5 kmh SE 5.4 mph8.7 kmh 30.47 in1031.8 mb 0.00 in0.0 mm 0.00 in0.0 mm 0.00 in0.0 mm
12:45 PM 51.0°F10.6°C 48.5°F9.2°C 91% 3.8 mph SSE6.1 kmh SSE 7.1 mph11.4 kmh 30.47 in1031.8 mb 0.00 in0.0 mm 0.00 in0.0 mm 0.00 in0.0 mm
12:50 PM 51.7°F10.9°C 49.2°F9.6°C 91% 3.6 mph SE5.8 kmh SE 8.0 mph12.9 kmh 30.47 in1031.8 mb 0.00 in0.0 mm 0.00 in0.0 mm 0.00 in0.0 mm
12:55 PM 52.1°F11.2°C 49.5°F9.7°C 91% 3.1 mph ESE5.0 kmh ESE 8.0 mph12.9 kmh 30.44 in1030.8 mb 0.00 in0.0 mm 0.00 in0.0 mm 0.00 in0.0 mm
01:00 PM 52.4°F11.3°C 49.6°F9.8°C 90% 3.3 mph ESE5.3 kmh ESE 5.7 mph9.2 kmh 30.44 in1030.8 mb 0.00 in0.0 mm 0.00 in0.0 mm 0.00 in0.0 mm
01:05 PM 53.2°F11.8°C 50.0°F10.0°C 89% 3.8 mph SE6.1 kmh SE 6.5 mph10.5 kmh 30.44 in1030.8 mb 0.00 in0.0 mm 0.00 in0.0 mm 0.00 in0.0 mm
01:10 PM 53.2°F11.8°C 49.7°F9.8°C 88% 5.4 mph SE8.7 kmh SE 9.8 mph15.8 kmh 30.44 in1030.8 mb 0.00 in0.0 mm 0.00 in0.0 mm 0.00 in0.0 mm
01:15 PM 52.6°F11.4°C 48.9°F9.4°C 87% 6.1 mph ESE9.8 kmh ESE 9.8 mph15.8 kmh 30.44 in1030.8 mb 0.00 in0.0 mm 0.00 in0.0 mm 0.00 in0.0 mm
01:20 PM 53.0°F11.7°C 49.2°F9.6°C 87% 4.5 mph S7.2 kmh S 7.1 mph11.4 kmh 30.44 in1030.8 mb 0.00 in0.0 mm 0.00 in0.0 mm 0.00 in0.0 mm
01:25 PM 53.5°F11.9°C 49.7°F9.8°C 87% 4.5 mph SE7.2 kmh SE 7.1 mph11.4 kmh 30.44 in1030.8 mb 0.00 in0.0 mm 0.00 in0.0 mm 0.00 in0.0 mm
01:30 PM 53.9°F12.2°C 49.8°F9.9°C 86% 4.8 mph SE7.7 kmh SE 8.6 mph13.8 kmh 30.44 in1030.8 mb 0.00 in0.0 mm 0.00 in0.0 mm 0.00 in0.0 mm
01:35 PM 54.2°F12.3°C 49.8°F9.9°C 85% 5.6 mph SE9.0 kmh SE 8.6 mph13.8 kmh 30.44 in1030.8 mb 0.00 in0.0 mm 0.00 in0.0 mm 0.00 in0.0 mm
01:40 PM 54.0°F12.2°C 49.3°F9.6°C 84% 5.7 mph SE9.2 kmh SE 8.6 mph13.8 kmh 30.44 in1030.8 mb 0.00 in0.0 mm 0.00 in0.0 mm 0.00 in0.0 mm
01:45 PM 54.0°F12.2°C 49.3°F9.6°C 84% 5.5 mph SE8.9 kmh SE 8.6 mph13.8 kmh 30.44 in1030.8 mb 0.00 in0.0 mm 0.00 in0.0 mm 0.00 in0.0 mm
01:50 PM 53.9°F12.2°C 48.8°F9.3°C 83% 5.9 mph SSE9.5 kmh SSE 11.3 mph18.2 kmh 30.44 in1030.8 mb 0.00 in0.0 mm 0.00 in0.0 mm 0.00 in0.0 mm
01:55 PM 53.9°F12.2°C 48.5°F9.2°C 82% 6.2 mph S10.0 kmh S 11.3 mph18.2 kmh 30.44 in1030.8 mb 0.00 in0.0 mm 0.00 in0.0 mm 0.00 in0.0 mm
02:00 PM 54.2°F12.3°C 48.5°F9.2°C 81% 5.7 mph SSW9.2 kmh SSW 8.3 mph13.4 kmh 30.44 in1030.8 mb 0.00 in0.0 mm 0.00 in0.0 mm 0.00 in0.0 mm
02:05 PM 54.2°F12.3°C 48.5°F9.2°C 81% 5.9 mph S9.5 kmh S 8.3 mph13.4 kmh 30.44 in1030.8 mb 0.00 in0.0 mm 0.00 in0.0 mm 0.00 in0.0 mm
02:10 PM 54.2°F12.3°C 48.2°F9.0°C 80% 6.0 mph SSE9.7 kmh SSE 9.5 mph15.3 kmh 30.41 in1029.8 mb 0.00 in0.0 mm 0.00 in0.0 mm 0.00 in0.0 mm
02:15 PM 54.6°F12.6°C 48.5°F9.2°C 80% 5.9 mph SSE9.5 kmh SSE 9.5 mph15.3 kmh 30.41 in1029.8 mb 0.00 in0.0 mm 0.00 in0.0 mm 0.00 in0.0 mm
02:20 PM 54.6°F12.6°C 48.2°F9.0°C 79% 7.2 mph S11.6 kmh S 10.4 mph16.7 kmh 30.41 in1029.8 mb 0.00 in0.0 mm 0.00 in0.0 mm 0.00 in0.0 mm
02:25 PM 54.4°F12.4°C 47.7°F8.7°C 78% 8.5 mph S13.7 kmh S 10.4 mph16.7 kmh 30.41 in1029.8 mb 0.00 in0.0 mm 0.00 in0.0 mm 0.00 in0.0 mm
02:30 PM 54.6°F12.6°C 47.5°F8.6°C 77% 8.0 mph S12.9 kmh S 10.4 mph16.7 kmh 30.41 in1029.8 mb 0.00 in0.0 mm 0.00 in0.0 mm 0.00 in0.0 mm
02:35 PM 54.6°F12.6°C 47.5°F8.6°C 77% 7.8 mph S12.6 kmh S 10.4 mph16.7 kmh 30.41 in1029.8 mb 0.00 in0.0 mm 0.00 in0.0 mm 0.00 in0.0 mm
02:40 PM 54.4°F12.4°C 46.6°F8.1°C 75% 7.7 mph S12.4 kmh S 10.1 mph16.3 kmh 30.44 in1030.8 mb 0.00 in0.0 mm 0.00 in0.0 mm 0.00 in0.0 mm
02:45 PM 54.6°F12.6°C 46.8°F8.2°C 75% 6.8 mph S10.9 kmh S 8.6 mph13.8 kmh 30.44 in1030.8 mb 0.00 in0.0 mm 0.00 in0.0 mm 0.00 in0.0 mm
02:50 PM 55.1°F12.8°C 47.3°F8.5°C 75% 6.3 mph S10.1 kmh S 8.3 mph13.4 kmh 30.44 in1030.8 mb 0.00 in0.0 mm 0.00 in0.0 mm 0.00 in0.0 mm
02:55 PM 55.1°F12.8°C 47.0°F8.3°C 74% 6.1 mph SW9.8 kmh SW 8.0 mph12.9 kmh 30.41 in1029.8 mb 0.00 in0.0 mm 0.00 in0.0 mm 0.00 in0.0 mm
03:00 PM 55.0°F12.8°C 46.8°F8.2°C 74% 5.2 mph SSW8.4 kmh SSW 8.0 mph12.9 kmh 30.41 in1029.8 mb 0.00 in0.0 mm 0.00 in0.0 mm 0.00 in0.0 mm
03:05 PM 55.1°F12.8°C 47.0°F8.3°C 74% 4.6 mph SSE7.4 kmh SSE 7.1 mph11.4 kmh 30.41 in1029.8 mb 0.00 in0.0 mm 0.00 in0.0 mm 0.00 in0.0 mm
03:10 PM 55.1°F12.8°C 46.6°F8.1°C 73% 5.1 mph ESE8.2 kmh ESE 7.7 mph12.4 kmh 30.44 in1030.8 mb 0.00 in0.0 mm 0.00 in0.0 mm 0.00 in0.0 mm
03:15 PM 55.1°F12.8°C 46.6°F8.1°C 73% 5.2 mph E8.4 kmh E 8.0 mph12.9 kmh 30.44 in1030.8 mb 0.00 in0.0 mm 0.00 in0.0 mm 0.00 in0.0 mm
03:20 PM 55.1°F12.8°C 46.6°F8.1°C 73% 4.5 mph E7.2 kmh E 8.0 mph12.9 kmh 30.44 in1030.8 mb 0.00 in0.0 mm 0.00 in0.0 mm 0.00 in0.0 mm
03:25 PM 55.0°F12.8°C 46.5°F8.1°C 73% 5.0 mph E8.0 kmh E 6.5 mph10.5 kmh 30.41 in1029.8 mb 0.00 in0.0 mm 0.00 in0.0 mm 0.00 in0.0 mm
03:30 PM 54.8°F12.7°C 46.3°F7.9°C 73% 5.3 mph E8.5 kmh E 7.7 mph12.4 kmh 30.41 in1029.8 mb 0.00 in0.0 mm 0.00 in0.0 mm 0.00 in0.0 mm
03:35 PM 54.2°F12.3°C 45.8°F7.7°C 73% 5.4 mph SE8.7 kmh SE 10.1 mph16.3 kmh 30.41 in1029.8 mb 0.00 in0.0 mm 0.00 in0.0 mm 0.00 in0.0 mm
03:40 PM 53.7°F12.1°C 45.2°F7.3°C 73% 4.7 mph SSE7.6 kmh SSE 10.1 mph16.3 kmh 30.41 in1029.8 mb 0.00 in0.0 mm 0.00 in0.0 mm 0.00 in0.0 mm
03:45 PM 53.5°F11.9°C 45.1°F7.3°C 73% 4.7 mph S7.6 kmh S 8.6 mph13.8 kmh 30.41 in1029.8 mb 0.00 in0.0 mm 0.00 in0.0 mm 0.00 in0.0 mm
03:50 PM 53.3°F11.8°C 44.9°F7.2°C 73% 5.3 mph S8.5 kmh S 8.6 mph13.8 kmh 30.41 in1029.8 mb 0.00 in0.0 mm 0.00 in0.0 mm 0.00 in0.0 mm
03:55 PM 53.0°F11.7°C 44.5°F6.9°C 73% 4.0 mph S6.4 kmh S 6.5 mph10.5 kmh 30.41 in1029.8 mb 0.00 in0.0 mm 0.00 in0.0 mm 0.00 in0.0 mm
04:00 PM 53.0°F11.7°C 44.5°F6.9°C 73% 3.5 mph S5.6 kmh S 6.5 mph10.5 kmh 30.41 in1029.8 mb 0.00 in0.0 mm 0.00 in0.0 mm 0.00 in0.0 mm
04:05 PM 52.8°F11.6°C 44.4°F6.9°C 73% 5.1 mph S8.2 kmh S 7.7 mph12.4 kmh 30.41 in1029.8 mb 0.00 in0.0 mm 0.00 in0.0 mm 0.00 in0.0 mm
04:10 PM 52.6°F11.4°C 44.2°F6.8°C 73% 5.5 mph S8.9 kmh S 7.7 mph12.4 kmh 30.41 in1029.8 mb 0.00 in0.0 mm 0.00 in0.0 mm 0.00 in0.0 mm
04:15 PM 52.6°F11.4°C 44.2°F6.8°C 73% 5.6 mph SSW9.0 kmh SSW 7.4 mph11.9 kmh 30.41 in1029.8 mb 0.00 in0.0 mm 0.00 in0.0 mm 0.00 in0.0 mm
04:20 PM 52.4°F11.3°C 44.0°F6.7°C 73% 6.0 mph S9.7 kmh S 8.3 mph13.4 kmh 30.41 in1029.8 mb 0.00 in0.0 mm 0.00 in0.0 mm 0.00 in0.0 mm
04:25 PM 52.1°F11.2°C 44.0°F6.7°C 74% 4.9 mph SSE7.9 kmh SSE 8.3 mph13.4 kmh 30.41 in1029.8 mb 0.00 in0.0 mm 0.00 in0.0 mm 0.00 in0.0 mm
04:30 PM 51.9°F11.1°C 43.9°F6.6°C 74% 4.0 mph SSE6.4 kmh SSE 7.4 mph11.9 kmh 30.41 in1029.8 mb 0.00 in0.0 mm 0.00 in0.0 mm 0.00 in0.0 mm
04:35 PM 51.7°F10.9°C 43.7°F6.5°C 74% 4.1 mph SSE6.6 kmh SSE 5.7 mph9.2 kmh 30.41 in1029.8 mb 0.00 in0.0 mm 0.00 in0.0 mm 0.00 in0.0 mm
04:40 PM 51.3°F10.7°C 43.0°F6.1°C 73% 4.2 mph ESE6.8 kmh ESE 5.7 mph9.2 kmh 30.41 in1029.8 mb 0.00 in0.0 mm 0.00 in0.0 mm 0.00 in0.0 mm
04:45 PM 51.2°F10.7°C 42.8°F6.0°C 73% 4.2 mph ESE6.8 kmh ESE 5.7 mph9.2 kmh 30.41 in1029.8 mb 0.00 in0.0 mm 0.00 in0.0 mm 0.00 in0.0 mm
04:50 PM 50.8°F10.4°C 42.5°F5.8°C 73% 3.4 mph ESE5.5 kmh ESE 4.8 mph7.7 kmh 30.41 in1029.8 mb 0.00 in0.0 mm 0.00 in0.0 mm 0.00 in0.0 mm
04:55 PM 50.5°F10.3°C 42.5°F5.8°C 74% 3.7 mph SSE6.0 kmh SSE 6.5 mph10.5 kmh 30.41 in1029.8 mb 0.00 in0.0 mm 0.00 in0.0 mm 0.00 in0.0 mm
05:00 PM 50.3°F10.2°C 42.3°F5.7°C 74% 4.3 mph SE6.9 kmh SE 6.5 mph10.5 kmh 30.41 in1029.8 mb 0.00 in0.0 mm 0.00 in0.0 mm 0.00 in0.0 mm
05:05 PM 49.9°F9.9°C 41.9°F5.5°C 74% 3.7 mph SE6.0 kmh SE 5.4 mph8.7 kmh 30.41 in1029.8 mb 0.00 in0.0 mm 0.00 in0.0 mm 0.00 in0.0 mm
05:10 PM 49.5°F9.7°C 41.6°F5.3°C 74% 4.8 mph S7.7 kmh S 7.7 mph12.4 kmh 30.41 in1029.8 mb 0.00 in0.0 mm 0.00 in0.0 mm 0.00 in0.0 mm
05:15 PM 49.4°F9.7°C 41.4°F5.2°C 74% 5.0 mph S8.0 kmh S 7.7 mph12.4 kmh 30.41 in1029.8 mb 0.00 in0.0 mm 0.00 in0.0 mm 0.00 in0.0 mm
05:20 PM 49.2°F9.6°C 41.3°F5.2°C 74% 5.1 mph S8.2 kmh S 7.7 mph12.4 kmh 30.41 in1029.8 mb 0.00 in0.0 mm 0.00 in0.0 mm 0.00 in0.0 mm
05:25 PM 48.8°F9.3°C 40.9°F4.9°C 74% 4.6 mph SE7.4 kmh SE 7.1 mph11.4 kmh 30.41 in1029.8 mb 0.00 in0.0 mm 0.00 in0.0 mm 0.00 in0.0 mm
05:30 PM 48.5°F9.2°C 40.9°F4.9°C 75% 3.9 mph ESE6.3 kmh ESE 8.0 mph12.9 kmh 30.41 in1029.8 mb 0.00 in0.0 mm 0.00 in0.0 mm 0.00 in0.0 mm
05:35 PM 48.3°F9.1°C 40.7°F4.8°C 75% 3.9 mph SSE6.3 kmh SSE 8.0 mph12.9 kmh 30.41 in1029.8 mb 0.00 in0.0 mm 0.00 in0.0 mm 0.00 in0.0 mm
05:40 PM 47.9°F8.8°C 40.4°F4.7°C 75% 4.6 mph S7.4 kmh S 6.5 mph10.5 kmh 30.41 in1029.8 mb 0.00 in0.0 mm 0.00 in0.0 mm 0.00 in0.0 mm
05:45 PM 47.8°F8.8°C 40.6°F4.8°C 76% 5.5 mph S8.9 kmh S 8.0 mph12.9 kmh 30.41 in1029.8 mb 0.00 in0.0 mm 0.00 in0.0 mm 0.00 in0.0 mm
05:50 PM 47.8°F8.8°C 40.6°F4.8°C 76% 4.8 mph S7.7 kmh S 8.0 mph12.9 kmh 30.41 in1029.8 mb 0.00 in0.0 mm 0.00 in0.0 mm 0.00 in0.0 mm
05:55 PM 47.4°F8.6°C 40.2°F4.6°C 76% 4.1 mph S6.6 kmh S 5.7 mph9.2 kmh 30.41 in1029.8 mb 0.00 in0.0 mm 0.00 in0.0 mm 0.00 in0.0 mm
06:00 PM 47.2°F8.4°C 40.0°F4.4°C 76% 4.2 mph S6.8 kmh S 5.1 mph8.2 kmh 30.41 in1029.8 mb 0.00 in0.0 mm 0.00 in0.0 mm 0.00 in0.0 mm
06:05 PM 47.0°F8.3°C 40.2°F4.6°C 77% 3.8 mph S6.1 kmh S 5.7 mph9.2 kmh 30.41 in1029.8 mb 0.00 in0.0 mm 0.00 in0.0 mm 0.00 in0.0 mm
06:10 PM 46.7°F8.2°C 39.8°F4.3°C 77% 3.0 mph S4.8 kmh S 5.7 mph9.2 kmh 30.44 in1030.8 mb 0.00 in0.0 mm 0.00 in0.0 mm 0.00 in0.0 mm
06:15 PM 46.5°F8.1°C 40.0°F4.4°C 78% 2.6 mph S4.2 kmh S 5.7 mph9.2 kmh 30.44 in1030.8 mb 0.00 in0.0 mm 0.00 in0.0 mm 0.00 in0.0 mm
06:20 PM 46.3°F7.9°C 39.8°F4.3°C 78% 2.1 mph S3.4 kmh S 4.8 mph7.7 kmh 30.44 in1030.8 mb 0.00 in0.0 mm 0.00 in0.0 mm 0.00 in0.0 mm
06:25 PM 46.0°F7.8°C 39.5°F4.2°C 78% 2.4 mph S3.9 kmh S 5.4 mph8.7 kmh 30.44 in1030.8 mb 0.00 in0.0 mm 0.00 in0.0 mm 0.00 in0.0 mm
06:30 PM 45.8°F7.7°C 39.6°F4.2°C 79% 3.2 mph S5.1 kmh S 5.4 mph8.7 kmh 30.44 in1030.8 mb 0.00 in0.0 mm 0.00 in0.0 mm 0.00 in0.0 mm
06:35 PM 45.6°F7.6°C 39.5°F4.2°C 79% 3.1 mph S5.0 kmh S 4.8 mph7.7 kmh 30.44 in1030.8 mb 0.00 in0.0 mm 0.00 in0.0 mm 0.00 in0.0 mm
06:40 PM 45.4°F7.4°C 39.6°F4.2°C 80% 2.5 mph S4.0 kmh S 3.6 mph5.8 kmh 30.44 in1030.8 mb 0.00 in0.0 mm 0.00 in0.0 mm 0.00 in0.0 mm
06:45 PM 45.0°F7.2°C 39.2°F4.0°C 80% 1.9 mph S3.1 kmh S 3.6 mph5.8 kmh 30.44 in1030.8 mb 0.00 in0.0 mm 0.00 in0.0 mm 0.00 in0.0 mm
06:50 PM 45.0°F7.2°C 39.2°F4.0°C 80% 1.6 mph SSE2.6 kmh SSE 3.3 mph5.3 kmh 30.44 in1030.8 mb 0.00 in0.0 mm 0.00 in0.0 mm 0.00 in0.0 mm
06:55 PM 44.7°F7.1°C 39.2°F4.0°C 81% 1.8 mph SSE2.9 kmh SSE 3.6 mph5.8 kmh 30.44 in1030.8 mb 0.00 in0.0 mm 0.00 in0.0 mm 0.00 in0.0 mm
07:00 PM 44.3°F6.8°C 38.9°F3.8°C 81% 2.2 mph SE3.5 kmh SE 4.5 mph7.2 kmh 30.44 in1030.8 mb 0.00 in0.0 mm 0.00 in0.0 mm 0.00 in0.0 mm
07:05 PM 44.3°F6.8°C 38.9°F3.8°C 81% 3.0 mph SE4.8 kmh SE 4.5 mph7.2 kmh 30.44 in1030.8 mb 0.00 in0.0 mm 0.00 in0.0 mm 0.00 in0.0 mm
07:10 PM 44.3°F6.8°C 39.2°F4.0°C 82% 3.4 mph SSE5.5 kmh SSE 4.5 mph7.2 kmh 30.44 in1030.8 mb 0.00 in0.0 mm 0.00 in0.0 mm 0.00 in0.0 mm
07:15 PM 44.3°F6.8°C 39.2°F4.0°C 82% 2.8 mph S4.5 kmh S 4.5 mph7.2 kmh 30.44 in1030.8 mb 0.00 in0.0 mm 0.00 in0.0 mm 0.00 in0.0 mm
07:20 PM 44.2°F6.8°C 39.3°F4.1°C 83% 1.3 mph S2.1 kmh S 3.6 mph5.8 kmh 30.44 in1030.8 mb 0.00 in0.0 mm 0.00 in0.0 mm 0.00 in0.0 mm
07:25 PM 43.8°F6.6°C 39.0°F3.9°C 83% 0.5 mph SE0.8 kmh SE 2.7 mph4.3 kmh 30.41 in1029.8 mb 0.00 in0.0 mm 0.00 in0.0 mm 0.00 in0.0 mm
07:30 PM 43.6°F6.4°C 38.5°F3.6°C 82% 0.4 mph SE0.6 kmh SE 2.7 mph4.3 kmh 30.41 in1029.8 mb 0.00 in0.0 mm 0.00 in0.0 mm 0.00 in0.0 mm
07:35 PM 43.1°F6.2°C 38.3°F3.5°C 83% Calm Calm -- 30.41 in1029.8 mb 0.00 in0.0 mm 0.00 in0.0 mm 0.00 in0.0 mm
07:40 PM 43.1°F6.2°C 38.3°F3.5°C 83% Calm Calm -- 30.44 in1030.8 mb 0.00 in0.0 mm 0.00 in0.0 mm 0.00 in0.0 mm
07:45 PM 42.5°F5.8°C 37.7°F3.2°C 83% Calm Calm -- 30.44 in1030.8 mb 0.00 in0.0 mm 0.00 in0.0 mm 0.00 in0.0 mm
07:50 PM 42.3°F5.7°C 37.6°F3.1°C 83% Calm Calm -- 30.44 in1030.8 mb 0.00 in0.0 mm 0.00 in0.0 mm 0.00 in0.0 mm
07:55 PM 41.8°F5.4°C 36.7°F2.6°C 82% Calm Calm -- 30.41 in1029.8 mb 0.00 in0.0 mm 0.00 in0.0 mm 0.00 in0.0 mm
08:00 PM 41.3°F5.2°C 36.5°F2.5°C 83% Calm Calm -- 30.41 in1029.8 mb 0.00 in0.0 mm 0.00 in0.0 mm 0.00 in0.0 mm
08:05 PM 40.9°F4.9°C 35.8°F2.1°C 82% Calm Calm -- 30.41 in1029.8 mb 0.00 in0.0 mm 0.00 in0.0 mm 0.00 in0.0 mm
08:10 PM 40.5°F4.7°C 35.5°F1.9°C 82% Calm Calm -- 30.44 in1030.8 mb 0.00 in0.0 mm 0.00 in0.0 mm 0.00 in0.0 mm
08:15 PM 40.4°F4.7°C 35.3°F1.8°C 82% Calm Calm -- 30.44 in1030.8 mb 0.00 in0.0 mm 0.00 in0.0 mm 0.00 in0.0 mm
08:20 PM 39.8°F4.3°C 35.1°F1.7°C 83% Calm Calm -- 30.44 in1030.8 mb 0.00 in0.0 mm 0.00 in0.0 mm 0.00 in0.0 mm
08:25 PM 39.8°F4.3°C 35.1°F1.7°C 83% Calm Calm -- 30.41 in1029.8 mb 0.00 in0.0 mm 0.00 in0.0 mm 0.00 in0.0 mm
08:30 PM 39.5°F4.2°C 34.7°F1.5°C 83% Calm Calm -- 30.41 in1029.8 mb 0.00 in0.0 mm 0.00 in0.0 mm 0.00 in0.0 mm
08:35 PM 39.3°F4.1°C 34.9°F1.6°C 84% Calm Calm -- 30.41 in1029.8 mb 0.00 in0.0 mm 0.00 in0.0 mm 0.00 in0.0 mm
08:40 PM 39.1°F3.9°C 34.7°F1.5°C 84% Calm Calm -- 30.41 in1029.8 mb 0.00 in0.0 mm 0.00 in0.0 mm 0.00 in0.0 mm
08:45 PM 38.9°F3.8°C 34.5°F1.4°C 84% 0.1 mph W0.2 kmh W 2.1 mph3.4 kmh 30.41 in1029.8 mb 0.00 in0.0 mm 0.00 in0.0 mm 0.00 in0.0 mm
08:50 PM 38.9°F3.8°C 34.5°F1.4°C 84% 0.4 mph S0.6 kmh S 2.7 mph4.3 kmh 30.41 in1029.8 mb 0.00 in0.0 mm 0.00 in0.0 mm 0.00 in0.0 mm
08:55 PM 38.8°F3.8°C 34.6°F1.4°C 85% 0.3 mph SE0.5 kmh SE 2.7 mph4.3 kmh 30.41 in1029.8 mb 0.00 in0.0 mm 0.00 in0.0 mm 0.00 in0.0 mm
09:00 PM 38.8°F3.8°C 34.6°F1.4°C 85% 0.2 mph NW0.3 kmh NW 2.7 mph4.3 kmh 30.41 in1029.8 mb 0.00 in0.0 mm 0.00 in0.0 mm 0.00 in0.0 mm
09:05 PM 38.8°F3.8°C 34.6°F1.4°C 85% 0.4 mph NW0.6 kmh NW 2.7 mph4.3 kmh 30.41 in1029.8 mb 0.00 in0.0 mm 0.00 in0.0 mm 0.00 in0.0 mm
09:10 PM 38.6°F3.7°C 34.5°F1.4°C 85% 0.5 mph SE0.8 kmh SE 3.0 mph4.8 kmh 30.41 in1029.8 mb 0.00 in0.0 mm 0.00 in0.0 mm 0.00 in0.0 mm
09:15 PM 38.8°F3.8°C 34.9°F1.6°C 86% 0.8 mph SE1.3 kmh SE 3.0 mph4.8 kmh 30.41 in1029.8 mb 0.00 in0.0 mm 0.00 in0.0 mm 0.00 in0.0 mm
09:20 PM 38.8°F3.8°C 34.9°F1.6°C 86% 1.6 mph SSE2.6 kmh SSE 4.5 mph7.2 kmh 30.41 in1029.8 mb 0.00 in0.0 mm 0.00 in0.0 mm 0.00 in0.0 mm
09:25 PM 39.1°F3.9°C 35.3°F1.8°C 86% 1.5 mph S2.4 kmh S 4.5 mph7.2 kmh 30.41 in1029.8 mb 0.00 in0.0 mm 0.00 in0.0 mm 0.00 in0.0 mm
09:30 PM 39.1°F3.9°C 35.3°F1.8°C 86% 0.8 mph S1.3 kmh S 1.8 mph2.9 kmh 30.41 in1029.8 mb 0.00 in0.0 mm 0.00 in0.0 mm 0.00 in0.0 mm
09:35 PM 39.5°F4.2°C 35.9°F2.2°C 87% 0.6 mph SSE1.0 kmh SSE 2.7 mph4.3 kmh 30.41 in1029.8 mb 0.00 in0.0 mm 0.00 in0.0 mm 0.00 in0.0 mm
09:40 PM 39.3°F4.1°C 35.7°F2.1°C 87% 0.5 mph SSE0.8 kmh SSE 2.7 mph4.3 kmh 30.41 in1029.8 mb 0.00 in0.0 mm 0.00 in0.0 mm 0.00 in0.0 mm
09:45 PM 39.3°F4.1°C 35.7°F2.1°C 87% 0.4 mph SE0.6 kmh SE 3.9 mph6.3 kmh 30.41 in1029.8 mb 0.00 in0.0 mm 0.00 in0.0 mm 0.00 in0.0 mm
09:50 PM 39.3°F4.1°C 35.7°F2.1°C 87% 0.6 mph SE1.0 kmh SE 3.9 mph6.3 kmh 30.41 in1029.8 mb 0.00 in0.0 mm 0.00 in0.0 mm 0.00 in0.0 mm
09:55 PM 39.3°F4.1°C 35.7°F2.1°C 87% 1.0 mph SE1.6 kmh SE 4.2 mph6.8 kmh 30.41 in1029.8 mb 0.00 in0.0 mm 0.00 in0.0 mm 0.00 in0.0 mm
10:00 PM 39.1°F3.9°C 35.6°F2.0°C 87% 0.5 mph SSE0.8 kmh SSE 4.2 mph6.8 kmh 30.41 in1029.8 mb 0.00 in0.0 mm 0.00 in0.0 mm 0.00 in0.0 mm
10:05 PM 39.1°F3.9°C 35.6°F2.0°C 87% 0.9 mph S1.4 kmh S 3.0 mph4.8 kmh 30.41 in1029.8 mb 0.00 in0.0 mm 0.00 in0.0 mm 0.00 in0.0 mm
10:10 PM 38.9°F3.8°C 35.4°F1.9°C 87% 0.7 mph S1.1 kmh S 3.0 mph4.8 kmh 30.41 in1029.8 mb 0.00 in0.0 mm 0.00 in0.0 mm 0.00 in0.0 mm
10:15 PM 39.1°F3.9°C 35.6°F2.0°C 87% 1.2 mph SE1.9 kmh SE 4.5 mph7.2 kmh 30.41 in1029.8 mb 0.00 in0.0 mm 0.00 in0.0 mm 0.00 in0.0 mm
10:20 PM 39.3°F4.1°C 35.7°F2.1°C 87% 3.3 mph SE5.3 kmh SE 5.4 mph8.7 kmh 30.41 in1029.8 mb 0.00 in0.0 mm 0.00 in0.0 mm 0.00 in0.0 mm
10:25 PM 39.3°F4.1°C 35.7°F2.1°C 87% 3.0 mph SE4.8 kmh SE 5.4 mph8.7 kmh 30.41 in1029.8 mb 0.00 in0.0 mm 0.00 in0.0 mm 0.00 in0.0 mm
10:30 PM 39.5°F4.2°C 35.9°F2.2°C 87% 2.4 mph ESE3.9 kmh ESE 5.4 mph8.7 kmh 30.41 in1029.8 mb 0.00 in0.0 mm 0.00 in0.0 mm 0.00 in0.0 mm
10:35 PM 39.7°F4.3°C 36.1°F2.3°C 87% 2.5 mph E4.0 kmh E 5.4 mph8.7 kmh 30.41 in1029.8 mb 0.00 in0.0 mm 0.00 in0.0 mm 0.00 in0.0 mm
10:40 PM 39.8°F4.3°C 36.3°F2.4°C 87% 2.5 mph SE4.0 kmh SE 5.4 mph8.7 kmh 30.41 in1029.8 mb 0.00 in0.0 mm 0.00 in0.0 mm 0.00 in0.0 mm
10:45 PM 39.8°F4.3°C 36.3°F2.4°C 87% 1.5 mph SE2.4 kmh SE 3.9 mph6.3 kmh 30.41 in1029.8 mb 0.00 in0.0 mm 0.00 in0.0 mm 0.00 in0.0 mm
10:50 PM 39.8°F4.3°C 36.3°F2.4°C 87% 0.5 mph E0.8 kmh E 1.5 mph2.4 kmh 30.41 in1029.8 mb 0.00 in0.0 mm 0.00 in0.0 mm 0.00 in0.0 mm
10:55 PM 39.8°F4.3°C 36.0°F2.2°C 86% 0.6 mph NW1.0 kmh NW 1.8 mph2.9 kmh 30.38 in1028.8 mb 0.00 in0.0 mm 0.00 in0.0 mm 0.00 in0.0 mm
11:00 PM 39.7°F4.3°C 36.1°F2.3°C 87% 0.9 mph SW1.4 kmh SW 3.6 mph5.8 kmh 30.38 in1028.8 mb 0.00 in0.0 mm 0.00 in0.0 mm 0.00 in0.0 mm
11:05 PM 39.7°F4.3°C 35.8°F2.1°C 86% 1.1 mph E1.8 kmh E 3.6 mph5.8 kmh 30.38 in1028.8 mb 0.00 in0.0 mm 0.00 in0.0 mm 0.00 in0.0 mm
11:10 PM 39.7°F4.3°C 35.8°F2.1°C 86% 2.2 mph E3.5 kmh E 5.7 mph9.2 kmh 30.38 in1028.8 mb 0.00 in0.0 mm 0.00 in0.0 mm 0.00 in0.0 mm
11:15 PM 39.8°F4.3°C 36.0°F2.2°C 86% 3.0 mph E4.8 kmh E 5.7 mph9.2 kmh 30.38 in1028.8 mb 0.00 in0.0 mm 0.00 in0.0 mm 0.00 in0.0 mm
11:20 PM 40.0°F4.4°C 36.2°F2.3°C 86% 3.5 mph E5.6 kmh E 5.4 mph8.7 kmh 30.38 in1028.8 mb 0.00 in0.0 mm 0.00 in0.0 mm 0.00 in0.0 mm
11:25 PM 40.0°F4.4°C 36.2°F2.3°C 86% 4.2 mph E6.8 kmh E 5.4 mph8.7 kmh 30.41 in1029.8 mb 0.00 in0.0 mm 0.00 in0.0 mm 0.00 in0.0 mm
11:30 PM 40.0°F4.4°C 36.2°F2.3°C 86% 4.3 mph E6.9 kmh E 5.4 mph8.7 kmh 30.41 in1029.8 mb 0.00 in0.0 mm 0.00 in0.0 mm 0.00 in0.0 mm
11:35 PM 40.0°F4.4°C 36.2°F2.3°C 86% 3.8 mph E6.1 kmh E 5.1 mph8.2 kmh 30.41 in1029.8 mb 0.00 in0.0 mm 0.00 in0.0 mm 0.00 in0.0 mm
11:40 PM 40.2°F4.6°C 36.0°F2.2°C 85% 3.1 mph E5.0 kmh E 4.2 mph6.8 kmh 30.41 in1029.8 mb 0.00 in0.0 mm 0.00 in0.0 mm 0.00 in0.0 mm
11:45 PM 40.4°F4.7°C 36.2°F2.3°C 85% 3.0 mph E4.8 kmh E 4.2 mph6.8 kmh 30.41 in1029.8 mb 0.00 in0.0 mm 0.00 in0.0 mm 0.00 in0.0 mm
11:50 PM 40.4°F4.7°C 36.2°F2.3°C 85% 3.1 mph E5.0 kmh E 4.5 mph7.2 kmh 30.41 in1029.8 mb 0.00 in0.0 mm 0.00 in0.0 mm 0.00 in0.0 mm
11:55 PM 40.4°F4.7°C 36.2°F2.3°C 85% 2.9 mph E4.7 kmh E 4.5 mph7.2 kmh 30.41 in1029.8 mb 0.00 in0.0 mm 0.00 in0.0 mm 0.00 in0.0 mm